createdAt,value
2022-10-17T00:00:49.883Z,47.44
2022-10-17T00:03:17.753Z,47.48
2022-10-17T00:05:49.726Z,47.47
2022-10-17T00:08:17.800Z,47.53
2022-10-17T00:10:44.346Z,47.54
2022-10-17T00:13:10.985Z,47.69
2022-10-17T00:15:37.476Z,47.39
2022-10-17T00:18:04.031Z,47.69
2022-10-17T00:20:30.599Z,47.69
2022-10-17T00:22:57.897Z,47.45
2022-10-17T00:25:24.723Z,47.37
2022-10-17T00:27:51.209Z,47.56
2022-10-17T00:30:19.492Z,47.61
2022-10-17T00:32:46.015Z,47.60
2022-10-17T00:35:13.220Z,47.71
2022-10-17T00:37:40.954Z,47.50
2022-10-17T00:40:08.531Z,47.68
2022-10-17T00:42:35.007Z,47.52
2022-10-17T00:45:07.045Z,47.76
2022-10-17T00:47:33.668Z,47.68
2022-10-17T00:52:34.215Z,47.63
2022-10-17T00:55:15.528Z,47.50
2022-10-17T00:57:44.128Z,47.61
2022-10-17T01:00:31.003Z,47.54
2022-10-17T01:02:57.859Z,47.27
2022-10-17T01:05:24.541Z,47.24
2022-10-17T01:07:52.967Z,47.22
2022-10-17T01:10:19.646Z,47.28
2022-10-17T01:12:52.080Z,47.51
2022-10-17T01:15:31.668Z,47.58
2022-10-17T01:18:07.247Z,47.45
2022-10-17T01:21:11.322Z,47.50
2022-10-17T01:24:09.119Z,47.33
2022-10-17T01:26:44.473Z,47.25
2022-10-17T01:29:42.210Z,47.47
2022-10-17T01:32:35.685Z,47.55
2022-10-17T01:35:25.308Z,47.63
2022-10-17T01:38:08.331Z,47.45
2022-10-17T01:40:39.882Z,47.62
2022-10-17T01:43:21.787Z,47.49
2022-10-17T01:46:00.646Z,47.65
2022-10-17T01:48:37.053Z,47.65
2022-10-17T01:51:16.991Z,47.42
2022-10-17T01:53:47.149Z,47.38
2022-10-17T01:56:15.701Z,47.47
2022-10-17T01:59:12.767Z,47.43
2022-10-17T02:01:39.328Z,47.54
2022-10-17T02:04:05.901Z,47.62
2022-10-17T02:06:36.676Z,47.56
2022-10-17T02:09:22.127Z,47.32
2022-10-17T02:12:13.260Z,47.57
2022-10-17T02:14:53.737Z,47.33
2022-10-17T02:17:45.233Z,47.27
2022-10-17T02:20:17.747Z,47.50
2022-10-17T02:23:10.177Z,47.48
2022-10-17T02:25:42.107Z,47.35
2022-10-17T02:28:24.405Z,47.33
2022-10-17T02:31:34.212Z,47.32
2022-10-17T02:34:09.566Z,47.26
2022-10-17T02:36:46.323Z,47.17
2022-10-17T02:39:14.303Z,47.52
2022-10-17T02:41:43.655Z,47.78
2022-10-17T02:44:11.200Z,47.44
2022-10-17T02:46:39.849Z,47.35
2022-10-17T02:52:08.342Z,47.80
2022-10-17T02:55:10.812Z,47.59
2022-10-17T02:57:39.919Z,47.82
2022-10-17T03:00:12.181Z,47.90
2022-10-17T03:02:46.656Z,47.67
2022-10-17T03:05:15.462Z,47.81
2022-10-17T03:07:42.628Z,48.03
2022-10-17T03:10:09.584Z,47.78
2022-10-17T03:12:36.520Z,47.65
2022-10-17T03:15:03.024Z,47.77
2022-10-17T03:17:30.417Z,47.93
2022-10-17T03:19:59.534Z,47.52
2022-10-17T03:22:26.907Z,47.59
2022-10-17T03:24:54.566Z,48.07
2022-10-17T03:27:21.348Z,47.93
2022-10-17T03:29:48.077Z,47.86
2022-10-17T03:32:14.556Z,47.84
2022-10-17T03:34:42.443Z,47.85
2022-10-17T03:37:09.172Z,47.68
2022-10-17T03:39:35.910Z,47.96
2022-10-17T03:42:03.488Z,47.72
2022-10-17T03:44:29.995Z,48.00
2022-10-17T03:46:59.283Z,47.92
2022-10-17T03:49:29.146Z,47.78
2022-10-17T03:51:55.721Z,48.05
2022-10-17T03:54:22.271Z,47.86
2022-10-17T03:56:49.056Z,48.04
2022-10-17T03:59:15.919Z,48.01
2022-10-17T04:01:44.590Z,47.89
2022-10-17T04:04:12.115Z,47.92
2022-10-17T04:06:40.382Z,47.96
2022-10-17T04:09:08.344Z,47.93
2022-10-17T04:11:38.453Z,48.12
2022-10-17T04:14:05.265Z,48.30
2022-10-17T04:16:31.748Z,48.08
2022-10-17T04:18:59.162Z,47.86
2022-10-17T04:21:28.619Z,47.98
2022-10-17T04:23:56.243Z,47.86
2022-10-17T04:26:23.736Z,48.12
2022-10-17T04:28:50.474Z,48.11
2022-10-17T04:31:17.270Z,48.08
2022-10-17T04:33:45.207Z,47.77
2022-10-17T04:36:12.773Z,47.85
2022-10-17T04:38:39.348Z,48.06
2022-10-17T04:41:08.572Z,47.83
2022-10-17T04:43:36.388Z,47.79
2022-10-17T04:46:06.812Z,47.92
2022-10-17T04:48:33.332Z,48.15
2022-10-17T04:51:03.904Z,48.03
2022-10-17T04:53:35.851Z,47.78
2022-10-17T04:56:07.920Z,47.90
2022-10-17T04:58:34.705Z,47.78
2022-10-17T05:01:06.869Z,47.92
2022-10-17T05:03:34.421Z,48.03
2022-10-17T05:06:09.779Z,48.03
2022-10-17T05:08:36.269Z,48.11
2022-10-17T05:11:02.829Z,48.11
2022-10-17T05:13:30.575Z,48.03
2022-10-17T05:16:01.173Z,47.80
2022-10-17T05:18:30.362Z,47.86
2022-10-17T05:20:57.020Z,47.89
2022-10-17T05:23:25.987Z,48.03
2022-10-17T05:25:56.018Z,47.79
2022-10-17T05:28:25.780Z,47.77
2022-10-17T05:30:52.249Z,47.90
2022-10-17T05:33:18.800Z,47.82
2022-10-17T05:35:45.287Z,48.23
2022-10-17T05:38:12.174Z,47.96
2022-10-17T05:40:39.411Z,48.19
2022-10-17T05:43:06.710Z,48.51
2022-10-17T05:45:34.054Z,48.16
2022-10-17T05:48:00.523Z,47.88
2022-10-17T05:50:27.233Z,47.88
2022-10-17T05:52:54.870Z,47.99
2022-10-17T05:55:22.305Z,48.29
2022-10-17T05:57:50.264Z,48.14
2022-10-17T06:00:17.722Z,48.32
2022-10-17T06:02:49.923Z,48.38
2022-10-17T06:05:17.001Z,48.38
2022-10-17T06:07:45.815Z,48.23
2022-10-17T06:10:16.171Z,48.50
2022-10-17T06:12:47.815Z,48.51
2022-10-17T06:15:15.338Z,48.44
2022-10-17T06:17:41.799Z,48.41
2022-10-17T06:20:08.643Z,48.35
2022-10-17T06:22:35.617Z,48.46
2022-10-17T06:25:06.343Z,48.42
2022-10-17T06:27:36.358Z,48.37
2022-10-17T06:30:02.912Z,48.43
2022-10-17T06:32:29.918Z,48.67
2022-10-17T06:34:58.448Z,48.54
2022-10-17T06:37:29.185Z,48.35
2022-10-17T06:39:57.482Z,48.44
2022-10-17T06:42:24.762Z,48.40
2022-10-17T06:44:51.227Z,48.20
2022-10-17T06:47:20.020Z,47.79
2022-10-17T06:49:47.838Z,47.85
2022-10-17T06:52:18.042Z,47.69
2022-10-17T06:54:46.060Z,47.99
2022-10-17T06:57:12.991Z,47.91
2022-10-17T06:59:39.808Z,47.68
2022-10-17T07:02:07.016Z,48.15
2022-10-17T07:04:33.594Z,48.13
2022-10-17T07:07:03.898Z,48.22
2022-10-17T07:09:31.303Z,47.73
2022-10-17T07:11:57.767Z,47.75
2022-10-17T07:14:31.735Z,48.41
2022-10-17T07:16:59.508Z,48.25
2022-10-17T07:19:27.052Z,49.35
2022-10-17T07:21:56.003Z,49.20
2022-10-17T07:24:22.468Z,50.39
2022-10-17T07:26:49.006Z,50.05
2022-10-17T07:29:16.920Z,50.03
2022-10-17T07:31:45.586Z,50.09
2022-10-17T07:34:13.236Z,50.04
2022-10-17T07:36:40.304Z,50.33
2022-10-17T07:39:07.174Z,50.41
2022-10-17T07:41:33.691Z,50.71
2022-10-17T07:44:00.417Z,50.39
2022-10-17T07:46:26.889Z,50.77
2022-10-17T07:48:53.426Z,51.17
2022-10-17T07:51:20.148Z,51.12
2022-10-17T07:53:48.786Z,51.17
2022-10-17T07:56:16.098Z,51.02
2022-10-17T07:58:43.643Z,51.30
2022-10-17T08:01:15.418Z,51.22
2022-10-17T08:03:43.740Z,51.16
2022-10-17T08:06:11.300Z,51.27
2022-10-17T08:08:38.363Z,51.69
2022-10-17T08:11:06.991Z,51.48
2022-10-17T08:13:36.588Z,52.02
2022-10-17T08:16:06.120Z,51.47
2022-10-17T08:18:32.944Z,51.52
2022-10-17T08:21:02.960Z,51.25
2022-10-17T08:23:31.891Z,51.43
2022-10-17T08:26:01.959Z,51.61
2022-10-17T08:28:28.810Z,51.17
2022-10-17T08:31:15.513Z,51.40
2022-10-17T08:33:42.083Z,51.33
2022-10-17T08:36:08.996Z,51.26
2022-10-17T08:38:36.819Z,51.33
2022-10-17T08:41:21.207Z,51.37
2022-10-17T08:44:01.254Z,51.60
2022-10-17T08:46:32.521Z,51.15
2022-10-17T08:49:00.638Z,51.20
2022-10-17T08:51:29.854Z,51.55
2022-10-17T08:54:33.157Z,51.08
2022-10-17T08:57:00.011Z,51.04
2022-10-17T08:59:27.581Z,51.40
2022-10-17T09:02:03.088Z,51.58
2022-10-17T09:04:44.464Z,51.66
2022-10-17T09:07:14.487Z,51.14
2022-10-17T09:09:54.013Z,50.93
2022-10-17T09:12:49.220Z,50.79
2022-10-17T09:15:34.897Z,50.35
2022-10-17T09:18:21.206Z,50.27
2022-10-17T09:20:58.138Z,50.31
2022-10-17T09:23:25.611Z,50.80
2022-10-17T09:25:53.941Z,51.17
2022-10-17T09:28:27.809Z,51.11
2022-10-17T09:31:01.971Z,51.08
2022-10-17T09:33:55.431Z,51.29
2022-10-17T09:36:30.081Z,51.06
2022-10-17T09:38:58.396Z,51.09
2022-10-17T09:42:04.150Z,51.30
2022-10-17T09:44:35.649Z,51.08
2022-10-17T09:47:22.727Z,51.07
2022-10-17T09:49:51.454Z,50.82
2022-10-17T09:52:39.644Z,50.50
2022-10-17T09:55:25.965Z,50.36
2022-10-17T09:58:01.394Z,50.70
2022-10-17T10:00:35.275Z,50.45
2022-10-17T10:03:28.313Z,50.49
2022-10-17T10:06:02.836Z,50.39
2022-10-17T10:08:37.450Z,50.11
2022-10-17T10:11:13.399Z,49.68
2022-10-17T10:13:40.645Z,50.38
2022-10-17T10:16:31.167Z,49.70
2022-10-17T10:18:57.702Z,50.06
2022-10-17T10:21:25.714Z,50.19
2022-10-17T10:24:13.588Z,50.10
2022-10-17T10:26:53.449Z,49.54
2022-10-17T10:29:30.987Z,50.29
2022-10-17T10:32:13.813Z,50.26
2022-10-17T10:35:03.769Z,50.05
2022-10-17T10:37:46.746Z,50.29
2022-10-17T10:40:33.412Z,49.82
2022-10-17T10:43:04.191Z,49.77
2022-10-17T10:45:47.942Z,49.18
2022-10-17T10:48:23.885Z,49.04
2022-10-17T10:50:56.086Z,49.11
2022-10-17T10:53:47.338Z,48.76
2022-10-17T10:56:22.174Z,49.19
2022-10-17T10:59:09.195Z,48.70
2022-10-17T11:01:44.161Z,48.64
2022-10-17T11:04:43.139Z,49.03
2022-10-17T11:07:40.486Z,48.78
2022-10-17T11:10:23.160Z,49.04
2022-10-17T11:13:04.651Z,48.65
2022-10-17T11:15:47.068Z,48.64
2022-10-17T11:18:51.775Z,48.84
2022-10-17T11:21:20.346Z,49.26
2022-10-17T11:23:59.425Z,48.39
2022-10-17T11:26:31.560Z,48.54
2022-10-17T11:28:58.825Z,48.32
2022-10-17T11:31:28.880Z,48.31
2022-10-17T11:34:01.692Z,48.36
2022-10-17T11:36:34.406Z,49.04
2022-10-17T11:39:06.318Z,49.71
2022-10-17T11:41:43.171Z,49.74
2022-10-17T11:44:18.810Z,49.85
2022-10-17T11:46:45.253Z,49.70
2022-10-17T11:49:19.835Z,49.92
2022-10-17T11:52:00.830Z,49.73
2022-10-17T11:54:50.866Z,49.89
2022-10-17T11:57:53.777Z,50.09
2022-10-17T12:00:48.994Z,49.97
2022-10-17T12:03:51.151Z,50.31
2022-10-17T12:06:39.136Z,50.46
2022-10-17T12:09:34.194Z,50.39
2022-10-17T12:12:02.421Z,50.44
2022-10-17T12:14:46.413Z,50.79
2022-10-17T12:17:41.413Z,50.52
2022-10-17T12:20:26.226Z,50.65
2022-10-17T12:22:59.501Z,50.54
2022-10-17T12:25:30.426Z,50.53
2022-10-17T12:28:06.951Z,50.68
2022-10-17T12:30:33.478Z,50.93
2022-10-17T12:33:12.544Z,51.05
2022-10-17T12:35:41.636Z,51.06
2022-10-17T12:38:15.575Z,51.27
2022-10-17T12:40:46.318Z,51.39
2022-10-17T12:43:18.069Z,51.46
2022-10-17T12:45:51.605Z,51.07
2022-10-17T12:48:36.402Z,51.63
2022-10-17T12:54:22.470Z,51.82
2022-10-17T12:56:49.083Z,51.89
2022-10-17T12:59:24.617Z,51.74
2022-10-17T13:01:53.822Z,52.08
2022-10-17T13:04:22.962Z,52.45
2022-10-17T13:06:57.483Z,52.20
2022-10-17T13:09:27.615Z,52.56
2022-10-17T13:11:54.531Z,52.94
2022-10-17T13:14:22.930Z,53.59
2022-10-17T13:17:00.338Z,54.07
2022-10-17T13:19:52.475Z,53.67
2022-10-17T13:22:49.516Z,54.62
2022-10-17T13:25:19.560Z,53.72
2022-10-17T13:27:46.454Z,53.33
2022-10-17T13:30:24.785Z,52.94
2022-10-17T13:32:55.522Z,52.99
2022-10-17T13:35:59.986Z,52.55
2022-10-17T13:40:51.401Z,52.63
2022-10-17T13:43:21.639Z,52.76
2022-10-17T13:45:52.985Z,52.54
2022-10-17T13:48:22.286Z,52.53
2022-10-17T13:50:50.607Z,52.59
2022-10-17T13:53:24.781Z,52.08
2022-10-17T13:59:05.087Z,51.98
2022-10-17T14:01:33.935Z,52.18
2022-10-17T14:04:08.754Z,52.68
2022-10-17T14:06:47.587Z,52.60
2022-10-17T14:09:38.455Z,52.38
2022-10-17T14:12:12.507Z,52.66
2022-10-17T14:15:05.557Z,52.53
2022-10-17T14:17:29.089Z,52.11
2022-10-17T14:20:34.026Z,52.39
2022-10-17T14:23:20.928Z,52.57
2022-10-17T14:25:40.374Z,52.59
2022-10-17T14:28:15.139Z,52.88
2022-10-17T14:31:01.701Z,52.99
2022-10-17T14:33:31.560Z,52.77
2022-10-17T14:35:58.974Z,52.63
2022-10-17T14:38:26.951Z,52.49
2022-10-17T14:41:04.831Z,52.54
2022-10-17T14:43:43.251Z,52.69
2022-10-17T14:46:14.988Z,52.58
2022-10-17T14:48:41.507Z,52.63
2022-10-17T14:51:09.386Z,52.72
2022-10-17T14:53:36.172Z,52.62
2022-10-17T14:56:05.932Z,52.77
2022-10-17T14:58:33.142Z,53.10
2022-10-17T15:01:01.451Z,52.71
2022-10-17T15:03:27.988Z,52.70
2022-10-17T15:05:54.994Z,53.02
2022-10-17T15:08:22.409Z,53.02
2022-10-17T15:10:49.324Z,52.78
2022-10-17T15:13:27.562Z,52.97
2022-10-17T15:15:55.382Z,53.13
2022-10-17T15:18:21.904Z,53.17
2022-10-17T15:20:55.213Z,53.03
2022-10-17T15:23:31.191Z,53.24
2022-10-17T15:25:57.646Z,53.08
2022-10-17T15:28:24.165Z,52.88
2022-10-17T15:30:50.716Z,53.17
2022-10-17T15:33:17.180Z,52.80
2022-10-17T15:35:44.147Z,53.10
2022-10-17T15:38:12.254Z,52.89
2022-10-17T15:40:38.716Z,53.01
2022-10-17T15:43:05.179Z,53.32
2022-10-17T15:45:31.788Z,53.24
2022-10-17T15:48:03.655Z,53.50
2022-10-17T15:50:30.847Z,53.28
2022-10-17T15:52:57.368Z,53.50
2022-10-17T15:55:24.335Z,53.58
2022-10-17T15:57:50.823Z,53.31
2022-10-17T16:00:24.048Z,53.56
2022-10-17T16:02:50.677Z,53.58
2022-10-17T16:05:25.951Z,53.48
2022-10-17T16:07:55.619Z,53.65
2022-10-17T16:10:22.303Z,53.94
2022-10-17T16:12:49.891Z,53.64
2022-10-17T16:15:22.847Z,53.70
2022-10-17T16:17:49.970Z,53.75
2022-10-17T16:20:16.460Z,54.05
2022-10-17T16:22:43.904Z,53.72
2022-10-17T16:25:22.025Z,53.59
2022-10-17T16:27:49.391Z,53.96
2022-10-17T16:30:16.239Z,53.79
2022-10-17T16:32:42.768Z,54.00
2022-10-17T16:35:09.673Z,53.72
2022-10-17T16:37:36.152Z,54.10
2022-10-17T16:40:04.325Z,54.13
2022-10-17T16:42:31.091Z,53.73
2022-10-17T16:44:57.816Z,53.61
2022-10-17T16:47:24.274Z,53.89
2022-10-17T16:49:50.809Z,53.78
2022-10-17T16:52:17.267Z,53.80
2022-10-17T16:54:43.763Z,53.63
2022-10-17T16:57:10.301Z,53.47
2022-10-17T16:59:36.828Z,53.24
2022-10-17T17:02:03.283Z,53.15
2022-10-17T17:04:29.841Z,52.93
2022-10-17T17:06:56.421Z,53.04
2022-10-17T17:09:22.979Z,52.82
2022-10-17T17:11:49.447Z,52.44
2022-10-17T17:14:15.919Z,52.69
2022-10-17T17:16:43.342Z,52.51
2022-10-17T17:19:13.999Z,53.72
2022-10-17T17:21:40.570Z,54.55
2022-10-17T17:24:07.047Z,55.25
2022-10-17T17:26:37.598Z,54.60
2022-10-17T17:29:04.333Z,54.27
2022-10-17T17:31:31.958Z,54.58
2022-10-17T17:33:58.552Z,54.90
2022-10-17T17:36:27.389Z,55.16
2022-10-17T17:38:55.135Z,55.22
2022-10-17T17:41:21.695Z,55.26
2022-10-17T17:43:48.460Z,55.13
2022-10-17T17:46:18.815Z,55.03
2022-10-17T17:48:46.057Z,54.31
2022-10-17T17:51:13.784Z,54.01
2022-10-17T17:53:40.275Z,53.88
2022-10-17T17:56:08.830Z,53.36
2022-10-17T17:58:35.542Z,53.59
2022-10-17T18:01:02.320Z,53.58
2022-10-17T18:03:28.823Z,53.30
2022-10-17T18:05:55.275Z,53.21
2022-10-17T18:08:21.767Z,53.05
2022-10-17T18:10:49.637Z,53.08
2022-10-17T18:13:16.250Z,52.79
2022-10-17T18:15:43.608Z,52.97
2022-10-17T18:18:10.149Z,53.11
2022-10-17T18:20:43.092Z,52.94
2022-10-17T18:23:09.985Z,52.65
2022-10-17T18:25:36.490Z,52.89
2022-10-17T18:28:03.335Z,52.92
2022-10-17T18:30:33.672Z,53.00
2022-10-17T18:33:01.100Z,52.77
2022-10-17T18:35:28.011Z,53.36
2022-10-17T18:37:56.714Z,53.07
2022-10-17T18:40:23.335Z,52.73
2022-10-17T18:42:49.799Z,52.96
2022-10-17T18:45:17.381Z,53.08
2022-10-17T18:47:45.267Z,52.96
2022-10-17T18:50:11.790Z,52.84
2022-10-17T18:52:38.249Z,52.75
2022-10-17T18:55:05.055Z,53.04
2022-10-17T18:57:31.793Z,53.08
2022-10-17T18:59:58.459Z,53.06
2022-10-17T19:02:24.927Z,53.34
2022-10-17T19:04:51.400Z,53.11
2022-10-17T19:07:20.039Z,53.31
2022-10-17T19:09:48.063Z,53.34
2022-10-17T19:12:14.516Z,53.35
2022-10-17T19:14:41.084Z,52.89
2022-10-17T19:17:07.548Z,53.38
2022-10-17T19:19:34.524Z,53.17
2022-10-17T19:22:03.284Z,53.34
2022-10-17T19:24:29.962Z,53.18
2022-10-17T19:26:58.028Z,53.37
2022-10-17T19:29:26.372Z,53.32
2022-10-17T19:31:53.132Z,53.42
2022-10-17T19:34:19.784Z,53.40
2022-10-17T19:36:46.339Z,53.21
2022-10-17T19:39:15.055Z,53.00
2022-10-17T19:41:46.594Z,53.26
2022-10-17T19:44:13.356Z,53.24
2022-10-17T19:46:40.075Z,52.94
2022-10-17T19:49:06.711Z,52.97
2022-10-17T19:51:33.292Z,52.92
2022-10-17T19:54:00.506Z,53.11
2022-10-17T19:56:27.951Z,52.96
2022-10-17T19:58:55.504Z,53.31
2022-10-17T20:01:23.845Z,52.90
2022-10-17T20:03:50.510Z,53.03
2022-10-17T20:06:17.550Z,53.19
2022-10-17T20:08:44.102Z,52.80
2022-10-17T20:11:15.394Z,53.13
2022-10-17T20:13:41.882Z,52.80
2022-10-17T20:16:09.101Z,52.81
2022-10-17T20:18:35.594Z,52.75
2022-10-17T20:21:06.708Z,53.04
2022-10-17T20:23:33.312Z,53.01
2022-10-17T20:26:13.558Z,53.06
2022-10-17T20:28:45.696Z,52.83
2022-10-17T20:31:12.371Z,52.70
2022-10-17T20:33:42.028Z,53.16
2022-10-17T20:36:11.225Z,52.98
2022-10-17T20:38:37.697Z,53.25
2022-10-17T20:41:08.936Z,52.84
2022-10-17T20:43:35.599Z,53.06
2022-10-17T20:46:11.057Z,53.16
2022-10-17T20:48:54.646Z,53.06
2022-10-17T20:51:21.211Z,52.82
2022-10-17T20:53:48.247Z,53.06
2022-10-17T20:56:20.931Z,52.99
2022-10-17T20:58:59.295Z,52.87
2022-10-17T21:01:26.086Z,52.89
2022-10-17T21:03:52.722Z,53.02
2022-10-17T21:06:19.403Z,53.35
2022-10-17T21:08:46.547Z,53.13
2022-10-17T21:11:15.102Z,52.57
2022-10-17T21:13:41.623Z,52.59
2022-10-17T21:16:12.619Z,52.84
2022-10-17T21:18:39.233Z,52.59
2022-10-17T21:21:19.406Z,52.49
2022-10-17T21:23:46.745Z,52.67
2022-10-17T21:26:13.431Z,52.59
2022-10-17T21:28:40.590Z,52.45
2022-10-17T21:31:12.357Z,52.80
2022-10-17T21:33:39.294Z,52.45
2022-10-17T21:36:06.059Z,52.55
2022-10-17T21:38:34.805Z,52.83
2022-10-17T21:41:01.357Z,52.60
2022-10-17T21:43:27.809Z,52.69
2022-10-17T21:45:54.275Z,52.43
2022-10-17T21:48:20.800Z,52.27
2022-10-17T21:50:47.309Z,52.60
2022-10-17T21:53:13.824Z,52.52
2022-10-17T21:55:40.343Z,52.71
2022-10-17T21:58:06.831Z,52.48
2022-10-17T22:00:33.323Z,52.54
2022-10-17T22:03:00.966Z,52.37
2022-10-17T22:05:30.215Z,52.41
2022-10-17T22:07:56.684Z,52.53
2022-10-17T22:10:23.190Z,52.61
2022-10-17T22:12:49.653Z,52.55
2022-10-17T22:15:16.135Z,52.19
2022-10-17T22:17:42.595Z,52.17
2022-10-17T22:20:09.184Z,52.12
2022-10-17T22:22:35.645Z,52.38
2022-10-17T22:25:02.115Z,52.42
2022-10-17T22:27:28.853Z,52.08
2022-10-17T22:29:55.604Z,52.25
2022-10-17T22:32:22.654Z,52.38
2022-10-17T22:34:49.327Z,52.34
2022-10-17T22:37:15.795Z,52.31
2022-10-17T22:39:42.280Z,51.99
2022-10-17T22:42:08.859Z,51.77
2022-10-17T22:44:35.410Z,51.85
2022-10-17T22:47:01.889Z,51.96
2022-10-17T22:49:28.370Z,52.20
2022-10-17T22:51:54.828Z,51.96
2022-10-17T22:54:21.294Z,52.08
2022-10-17T22:56:47.743Z,51.73
2022-10-17T22:59:15.303Z,51.79
2022-10-17T23:01:41.838Z,51.88
2022-10-17T23:04:08.367Z,51.79
2022-10-17T23:06:34.819Z,51.46
2022-10-17T23:09:01.352Z,51.48
2022-10-17T23:11:27.845Z,51.52
2022-10-17T23:13:54.307Z,51.45
2022-10-17T23:16:20.771Z,51.34
2022-10-17T23:18:47.239Z,51.69
2022-10-17T23:21:13.735Z,51.69
2022-10-17T23:23:40.205Z,51.76
2022-10-17T23:26:08.865Z,51.58
2022-10-17T23:28:35.703Z,51.65
2022-10-17T23:31:16.503Z,51.62
2022-10-17T23:33:44.728Z,51.61
2022-10-17T23:36:12.380Z,51.64
2022-10-17T23:38:39.764Z,51.50
2022-10-17T23:41:06.209Z,51.65
2022-10-17T23:43:34.170Z,51.31
2022-10-17T23:46:04.225Z,51.41
2022-10-17T23:48:30.709Z,51.59
2022-10-17T23:50:57.459Z,51.50
2022-10-17T23:53:24.045Z,51.70
2022-10-17T23:55:50.570Z,51.79
2022-10-17T23:58:17.268Z,51.46
